Map

Track Data

SID SEASON NUMBER BASIN SUBBASIN NAME ISO_TIME NATURE LAT LON WMO_WIND WMO_PRES WMO_AGENCY TRACK_TYPE DIST2LAND LANDFALL IFLAG USA_AGENCY USA_ATCF_ID USA_LAT USA_LON USA_RECORD USA_STATUS USA_WIND USA_PRES USA_SSHS USA_R34_NE USA_R34_SE USA_R34_SW USA_R34_NW USA_R50_NE USA_R50_SE USA_R50_SW USA_R50_NW USA_R64_NE USA_R64_SE USA_R64_SW USA_R64_NW USA_POCI USA_ROCI USA_RMW USA_EYE TOKYO_LAT TOKYO_LON TOKYO_GRADE TOKYO_WIND TOKYO_PRES TOKYO_R50_DIR TOKYO_R50_LONG TOKYO_R50_SHORT TOKYO_R30_DIR TOKYO_R30_LONG TOKYO_R30_SHORT TOKYO_LAND CMA_LAT CMA_LON CMA_CAT CMA_WIND CMA_PRES HKO_LAT HKO_LON HKO_CAT HKO_WIND HKO_PRES NEWDELHI_LAT NEWDELHI_LON NEWDELHI_GRADE NEWDELHI_WIND NEWDELHI_PRES NEWDELHI_CI NEWDELHI_DP NEWDELHI_POCI REUNION_LAT REUNION_LON REUNION_TYPE REUNION_WIND REUNION_PRES REUNION_TNUM REUNION_CI REUNION_RMW REUNION_R34_NE REUNION_R34_SE REUNION_R34_SW REUNION_R34_NW REUNION_R50_NE REUNION_R50_SE REUNION_R50_SW REUNION_R50_NW REUNION_R64_NE REUNION_R64_SE REUNION_R64_SW REUNION_R64_NW BOM_LAT BOM_LON BOM_TYPE BOM_WIND BOM_PRES BOM_TNUM BOM_CI BOM_RMW BOM_R34_NE BOM_R34_SE BOM_R34_SW BOM_R34_NW BOM_R50_NE BOM_R50_SE BOM_R50_SW BOM_R50_NW BOM_R64_NE BOM_R64_SE BOM_R64_SW BOM_R64_NW BOM_ROCI BOM_POCI BOM_EYE BOM_POS_METHOD BOM_PRES_METHOD NADI_LAT NADI_LON NADI_CAT NADI_WIND NADI_PRES WELLINGTON_LAT WELLINGTON_LON WELLINGTON_WIND WELLINGTON_PRES DS824_LAT DS824_LON DS824_STAGE DS824_WIND DS824_PRES TD9636_LAT TD9636_LON TD9636_STAGE TD9636_WIND TD9636_PRES TD9635_LAT TD9635_LON TD9635_WIND TD9635_PRES TD9635_ROCI NEUMANN_LAT NEUMANN_LON NEUMANN_CLASS NEUMANN_WIND NEUMANN_PRES MLC_LAT MLC_LON MLC_CLASS MLC_WIND MLC_PRES USA_GUST BOM_GUST BOM_GUST_PER REUNION_GUST REUNION_GUST_PER USA_SEAHGT USA_SEARAD_NE USA_SEARAD_SE USA_SEARAD_SW USA_SEARAD_NW STORM_SPEED STORM_DIR
1954086S08061 1954 13 SI MM NOT_NAMED 1954-03-26 18:00:00 TS -8.10000 60.8000 main 1312 1272 O________OO___ jtwc_sh SH131954 -8.10000 60.8000 -1 -8.10000 60.8000 TC -8.10000 60.8000 7 9 234
1954086S08061 1954 13 SI MM NOT_NAMED 1954-03-26 21:00:00 TS -8.34803 60.4511 main 1272 1218 P________PP___ SH131954 -8.35005 60.4601 -1 -8.35005 60.4601 TC -8.34401 60.4331 7 9 235
1954086S08061 1954 13 SI MM NOT_NAMED 1954-03-27 00:00:00 TS -8.59677 60.0876 main 1218 1169 O________OP___ jtwc_sh SH131954 -8.60000 60.1000 -1 -8.60000 60.1000 TC 25 -8.59030 60.0628 7 9 236
1954086S08061 1954 13 SI MM NOT_NAMED 1954-03-27 03:00:00 TS -8.84713 59.7004 main 1169 1115 P________PP___ SH131954 -8.84998 59.7075 -1 -8.84998 59.7075 TC 25 -8.84144 59.6861 7 9 237
1954086S08061 1954 13 SI MM NOT_NAMED 1954-03-27 06:00:00 TS -9.10000 59.3000 main 1115 1066 O________OO___ jtwc_sh SH131954 -9.10000 59.3000 -1 -9.10000 59.3000 TC 25 -9.10000 59.3000 1 9 237
1954086S08061 1954 13 SI MM NOT_NAMED 1954-03-27 09:00:00 TS -9.35083 58.9054 main 1061 1012 P________PP___ SH131954 -9.34243 58.9074 -1 -9.34243 58.9074 TC 25 -9.36764 58.9014 1 9 237
1954086S08061 1954 13 SI MM NOT_NAMED 1954-03-27 12:00:00 TS -9.61408 58.4957 main 1012 959 O________OP___ jtwc_sh SH131954 -9.60000 58.5000 -1 -9.60000 58.5000 TC 25 -9.64223 58.4872 1 10 236
1954086S08061 1954 13 SI MM NOT_NAMED 1954-03-27 15:00:00 TS -9.90684 58.0664 main 959 895 P________PP___ SH131954 -9.89990 58.0725 -1 -9.89990 58.0725 TC 25 -9.92070 58.0544 1 11 236
1954086S08061 1954 13 SI MM NOT_NAMED 1954-03-27 18:00:00 TS -10.2000 57.6000 main 895 832 O________OO___ jtwc_sh SH131954 -10.2000 57.6000 -1 -10.2000 57.6000 TC 25 -10.2000 57.6000 1 11 241
1954086S08061 1954 13 SI MM NOT_NAMED 1954-03-27 21:00:00 TS -10.4666 57.0577 main 832 763 P________PP___ SH131954 -10.4501 57.0499 -1 -10.4501 57.0499 TC 25 -10.4997 57.0732 1 12 244
1954086S08061 1954 13 SI MM NOT_NAMED 1954-03-28 00:00:00 TS -10.7319 56.5110 main 763 700 O________OP___ jtwc_sh SH131954 -10.7000 56.5000 -1 -10.7000 56.5000 TC 25 -10.7956 56.5331 1 12 241
1954086S08061 1954 13 SI MM NOT_NAMED 1954-03-28 03:00:00 TS -11.0328 56.0072 main 700 648 P________PP___ SH131954 -11.0150 55.9976 -1 -11.0150 55.9976 TC 25 -11.0685 56.0264 1 11 238
1954086S08061 1954 13 SI MM NOT_NAMED 1954-03-28 06:00:00 TS -11.3000 55.6000 main 648 621 O________OO___ jtwc_sh SH131954 -11.3000 55.6000 -1 -11.3000 55.6000 TC 25 -11.3000 55.6000 1 8 236
1954086S08061 1954 13 SI MM NOT_NAMED 1954-03-28 09:00:00 TS -11.4744 55.3487 main 610 597 P________PP___ SH131954 -11.4799 55.3624 -1 -11.4799 55.3624 TC 25 -11.4635 55.3213 1 5 235
1954086S08061 1954 13 SI MM NOT_NAMED 1954-03-28 12:00:00 TS -11.5956 55.1748 main 597 573 O________OP___ jtwc_sh SH131954 -11.6000 55.2000 -1 -11.6000 55.2000 TC 25 -11.5868 55.1243 1 4 237
1954086S08061 1954 13 SI MM NOT_NAMED 1954-03-28 15:00:00 TS -11.6972 54.9934 main 573 549 P________PP___ SH131954 -11.7000 55.0074 -1 -11.7000 55.0074 TC 25 -11.6917 54.9652 1 4 241
1954086S08061 1954 13 SI MM NOT_NAMED 1954-03-28 18:00:00 TS -11.8000 54.8000 main 549 525 O________OO___ jtwc_sh SH131954 -11.8000 54.8000 -1 -11.8000 54.8000 TC 25 -11.8000 54.8000 1 5 240
1954086S08061 1954 13 SI MM NOT_NAMED 1954-03-28 21:00:00 TS -11.9426 54.5625 main 525 488 P________PP___ SH131954 -11.9425 54.5575 -1 -11.9425 54.5575 TC 25 -11.9428 54.5724 1 6 238
1954086S08061 1954 13 SI MM NOT_NAMED 1954-03-29 00:00:00 TS -12.0975 54.3100 main 488 464 O________OP___ jtwc_sh SH131954 -12.1000 54.3000 -1 -12.1000 54.3000 TC 25 -12.0924 54.3299 1 6 238
1954086S08061 1954 13 SI MM NOT_NAMED 1954-03-29 03:00:00 TS -12.2486 54.0624 main 464 427 P________PP___ SH131954 -12.2500 54.0575 -1 -12.2500 54.0575 TC 25 -12.2458 54.0724 1 6 239
1954086S08061 1954 13 SI MM NOT_NAMED 1954-03-29 06:00:00 TS -12.4000 53.8000 main 427 392 O________OO___ jtwc_sh SH131954 -12.4000 53.8000 -1 -12.4000 53.8000 TC 25 -12.4000 53.8000 1 6 240
1954086S08061 1954 13 SI MM NOT_NAMED 1954-03-29 09:00:00 TS -12.5540 53.5125 main 389 355 P________PP___ SH131954 -12.5500 53.5075 -1 -12.5500 53.5075 TC 25 -12.5621 53.5225 1 7 242
1954086S08061 1954 13 SI MM NOT_NAMED 1954-03-29 12:00:00 TS -12.7074 53.2100 main 355 319 O________OP___ jtwc_sh SH131954 -12.7000 53.2000 -1 -12.7000 53.2000 TC 25 -12.7224 53.2300 1 7 242
1954086S08061 1954 13 SI MM NOT_NAMED 1954-03-29 15:00:00 TS -12.8621 52.9075 main 319 285 P________PP___ SH131954 -12.8575 52.9000 -1 -12.8575 52.9000 TC 25 -12.8714 52.9225 1 7 244
1954086S08061 1954 13 SI MM NOT_NAMED 1954-03-29 18:00:00 TS -13.0000 52.6000 main 285 250 O________OO___ jtwc_sh SH131954 -13.0000 52.6000 -1 -13.0000 52.6000 TC 25 -13.0000 52.6000 1 6 246
1954086S08061 1954 13 SI MM NOT_NAMED 1954-03-29 21:00:00 TS -13.1168 52.3089 main 250 216 P________PP___ SH131954 -13.1149 52.3150 -1 -13.1149 52.3150 TC 25 -13.1205 52.2969 1 6 251
1954086S08061 1954 13 SI MM NOT_NAMED 1954-03-30 00:00:00 TS -13.2056 51.9917 main 216 181 O________OP___ jtwc_sh SH131954 -13.2000 52.0000 -1 -13.2000 52.0000 TC 25 -13.2168 51.9752 1 7 257
1954086S08061 1954 13 SI MM NOT_NAMED 1954-03-30 03:00:00 TS -13.2748 51.6303 main 171 130 P________PP___ SH131954 -13.2724 51.6375 -1 -13.2724 51.6375 TC 25 -13.2797 51.6158 1 8 263
1954086S08061 1954 13 SI MM NOT_NAMED 1954-03-30 06:00:00 TS -13.3000 51.2000 main 130 76 O________OO___ jtwc_sh SH131954 -13.3000 51.2000 -1 -13.3000 51.2000 TC 25 -13.3000 51.2000 1 9 270
1954086S08061 1954 13 SI MM NOT_NAMED 1954-03-30 09:00:00 TS -13.2807 50.6787 main 76 21 P________PP___ SH131954 -13.2725 50.6725 -1 -13.2725 50.6725 TC 25 -13.2970 50.6913 1 11 275
1954086S08061 1954 13 SI MM NOT_NAMED 1954-03-30 12:00:00 TS -13.2160 50.1100 main 21 0 O________OP___ jtwc_sh SH131954 -13.2000 50.1000 -1 -13.2000 50.1000 TC 25 -13.2481 50.1301 1 11 278
1954086S08061 1954 13 SI MM NOT_NAMED 1954-03-30 15:00:00 TS -13.1317 49.5413 main 0 0 P________PP___ SH131954 -13.1225 49.5351 -1 -13.1225 49.5351 TC 25 -13.1500 49.5538 1 11 281
1954086S08061 1954 13 SI MM NOT_NAMED 1954-03-30 18:00:00 TS -13.0000 49.0000 main 0 0 O________OO___ jtwc_sh SH131954 -13.0000 49.0000 -1 -13.0000 49.0000 TC 25 -13.0000 49.0000 1 10 287
1954086S08061 1954 13 SI MM NOT_NAMED 1954-03-30 21:00:00 TS -12.8192 48.5224 main 39 39 P________PP___ SH131954 -12.8298 48.5351 -1 -12.8298 48.5351 TC 25 -12.7980 48.4972 1 10 295
1954086S08061 1954 13 SI MM NOT_NAMED 1954-03-31 00:00:00 TS -12.5850 48.0798 main 76 76 O________OP___ jtwc_sh SH131954 -12.6000 48.1000 -1 -12.6000 48.1000 TC 25 -12.5550 48.0394 1 10 301
1954086S08061 1954 13 SI MM NOT_NAMED 1954-03-31 03:00:00 TS -12.3050 47.6405 main 132 132 P________PP___ SH131954 -12.3152 47.6548 -1 -12.3152 47.6548 TC 25 -12.2845 47.6119 1 10 304
1954086S08061 1954 13 SI MM NOT_NAMED 1954-03-31 06:00:00 TS -12.0000 47.2000 main 182 O________OO___ jtwc_sh SH131954 -12.0000 47.2000 -1 -12.0000 47.2000 TC 25 -12.0000 47.2000 1 11 305

About IBTrACS Database

This database is a web-friendly format of International Best Track Archive for Climate Stewardship (IBTrACS), a global best track data archive curated by NOAA dating back to 1842.

Updated: 2021-11-26